CheckWX is a tool to help pilots better visualize weather data.  It is not intended as a substitute for an official pre-flight weather briefing.

03:17:32 UTC

KCFD METAR
Coulter Field Airport
Bryan, Texas, USA
Current

23 mins ago

KCFD 270255Z AUTO 13005KT 10SM CLR 25/19 A3001 RMK AO2 T02480188
Observed
May-27 @ 02:55 UTC
Wind
  • 130° at 5 KTS
Visibility
10 SM
Flight Rules
VFR
Cloud Levels
  • Clear skies
Temperature
25°C / 77°F
Dewpoint
19°C / 66°F
Humidity
69%
Altimeter
30.01" Hg
Pressure
1016.22 hPa
Previous

43 mins ago

KCFD 270235Z AUTO 14007KT 10SM CLR 26/19 A3000 RMK AO2 T02580187
Observed
May-27 @ 02:35 UTC
Wind
  • 140° at 7 KTS
Visibility
10 SM
Flight Rules
VFR
Cloud Levels
  • Clear skies
Temperature
26°C / 79°F
Dewpoint
19°C / 66°F
Humidity
65%
Altimeter
30" Hg
Pressure
1015.92 hPa
Previous

1 hour ago

KCFD 270215Z AUTO 14007KT 10SM CLR 27/19 A3000 RMK AO2 T02670188
Observed
May-27 @ 02:15 UTC
Wind
  • 140° at 7 KTS
Visibility
10 SM
Flight Rules
VFR
Cloud Levels
  • Clear skies
Temperature
27°C / 81°F
Dewpoint
19°C / 66°F
Heat Index
28°C / 83°F
Humidity
62%
Altimeter
30" Hg
Pressure
1015.92 hPa